Maran Castor — SXLH — position and weather

sailwx.info

Track history (hours):
 
Tides and Currents Weather Stations Pressure Air Temp Water Temp Dewpoint Dewpoint Depression Visibility Wind Speed Wind Dir Waves Ship Positions

Maran Castor

Last reported at 2015-Feb-20 22:31 UTC. Time now 2015-Feb-28 19:13 UTC.
Position N 01°55' E 102°19'.

Length 332 m; draft 11.3 m.

Type: Tanker. MMSI: 239808000.

Date/timePositionNaut miles runAvg speedWind from/ knotsBaromVisibWave heightAir tempDewpointWater temp
2015-Feb-20 22:31N 01°55' E 102°19'1515.4
2015-Feb-20 21:33N 01°49' E 102°32'2016.0
2015-Feb-20 20:19N 01°40' E 102°50'6513.6
2015-Feb-20 15:33N 01°10' E 103°47'10 9.6
2015-Feb-20 14:30N 01°16' E 103°55'0 0.2
2015-Feb-20 12:32N 01°17' E 103°55'0 0.2
2015-Feb-20 11:32N 01°17' E 103°55'0 0.1
2015-Feb-20 08:08N 01°17' E 103°55'0 0.1
2015-Feb-20 07:32N 01°17' E 103°55'0 0.1
2015-Feb-20 06:20N 01°17' E 103°55'0 0.3
2015-Feb-20 05:26N 01°17' E 103°55'0 0.0
2015-Feb-20 04:14N 01°17' E 103°55'0 0.0
2015-Feb-20 02:20N 01°17' E 103°55'0 0.0
2015-Feb-20 01:14N 01°17' E 103°55'0 0.0
2015-Feb-20 00:26N 01°17' E 103°55'0 0.0
2015-Feb-19 22:20N 01°17' E 103°55'0 0.1
2015-Feb-19 21:32N 01°17' E 103°55'0 0.0
2015-Feb-19 20:26N 01°17' E 103°55'0 0.0
2015-Feb-19 19:26N 01°17' E 103°55'0 0.0
2015-Feb-19 18:29N 01°17' E 103°55'0 0.0
2015-Feb-19 17:26N 01°17' E 103°55'0 0.1
2015-Feb-19 16:32N 01°17' E 103°55'0 0.0
2015-Feb-19 15:23N 01°17' E 103°55'0 0.0
2015-Feb-19 13:08N 01°17' E 103°55'0 0.0
2015-Feb-19 12:08N 01°17' E 103°55'0 0.1
2015-Feb-19 11:11N 01°17' E 103°55'0 0.3
2015-Feb-19 10:26N 01°17' E 103°55'0 0.1
2015-Feb-19 09:20N 01°17' E 103°55'0 0.0
2015-Feb-19 08:26N 01°17' E 103°55'0 0.0
2015-Feb-19 07:32N 01°17' E 103°55'0 0.0
2015-Feb-19 06:26N 01°17' E 103°55'0 0.1
2015-Feb-19 05:32N 01°17' E 103°55'0 0.2
2015-Feb-19 04:32N 01°17' E 103°55'0 0.2
2015-Feb-19 03:26N 01°17' E 103°55'2 2.7
2015-Feb-19 02:33N 01°15' E 103°57'3 2.8
2015-Feb-19 01:33N 01°16' E 103°59'7 6.4
2015-Feb-19 00:32N 01°17' E 104°06'  
2015-Feb-10 23:29N 23°13' E 117°48'  
Track history (hours):
 
Tides and Currents Weather Stations Pressure Air Temp Water Temp Dewpoint Dewpoint Depression Visibility Wind Speed Wind Dir Waves Ship Positions

Maran Castor

Last reported at 2015-Feb-20 22:31 UTC. Time now 2015-Feb-28 19:13 UTC.
Position N 01°55' E 102°19'.

Length 332 m; draft 11.3 m.

Type: Tanker. MMSI: 239808000.

Date/timePositionNaut miles runAvg speedWind from/ knotsBaromVisibWave heightAir tempDewpointWater temp
2015-Feb-20 22:31N 01°55' E 102°19'1515.4
2015-Feb-20 21:33N 01°49' E 102°32'2016.0
2015-Feb-20 20:19N 01°40' E 102°50'6513.6
2015-Feb-20 15:33N 01°10' E 103°47'10 9.6
2015-Feb-20 14:30N 01°16' E 103°55'0 0.2
2015-Feb-20 12:32N 01°17' E 103°55'0 0.2
2015-Feb-20 11:32N 01°17' E 103°55'0 0.1
2015-Feb-20 08:08N 01°17' E 103°55'0 0.1
2015-Feb-20 07:32N 01°17' E 103°55'0 0.1
2015-Feb-20 06:20N 01°17' E 103°55'0 0.3
2015-Feb-20 05:26N 01°17' E 103°55'0 0.0
2015-Feb-20 04:14N 01°17' E 103°55'0 0.0
2015-Feb-20 02:20N 01°17' E 103°55'0 0.0
2015-Feb-20 01:14N 01°17' E 103°55'0 0.0
2015-Feb-20 00:26N 01°17' E 103°55'0 0.0
2015-Feb-19 22:20N 01°17' E 103°55'0 0.1
2015-Feb-19 21:32N 01°17' E 103°55'0 0.0
2015-Feb-19 20:26N 01°17' E 103°55'0 0.0
2015-Feb-19 19:26N 01°17' E 103°55'0 0.0
2015-Feb-19 18:29N 01°17' E 103°55'0 0.0
2015-Feb-19 17:26N 01°17' E 103°55'0 0.1
2015-Feb-19 16:32N 01°17' E 103°55'0 0.0
2015-Feb-19 15:23N 01°17' E 103°55'0 0.0
2015-Feb-19 13:08N 01°17' E 103°55'0 0.0
2015-Feb-19 12:08N 01°17' E 103°55'0 0.1
2015-Feb-19 11:11N 01°17' E 103°55'0 0.3
2015-Feb-19 10:26N 01°17' E 103°55'0 0.1
2015-Feb-19 09:20N 01°17' E 103°55'0 0.0
2015-Feb-19 08:26N 01°17' E 103°55'0 0.0
2015-Feb-19 07:32N 01°17' E 103°55'0 0.0
2015-Feb-19 06:26N 01°17' E 103°55'0 0.1
2015-Feb-19 05:32N 01°17' E 103°55'0 0.2
2015-Feb-19 04:32N 01°17' E 103°55'0 0.2
2015-Feb-19 03:26N 01°17' E 103°55'2 2.7
2015-Feb-19 02:33N 01°15' E 103°57'3 2.8
2015-Feb-19 01:33N 01°16' E 103°59'7 6.4
2015-Feb-19 00:32N 01°17' E 104°06'  
2015-Feb-10 23:29N 23°13' E 117°48'  

Dump ship's entire track history